sensor_id;sensor_type;location;lat;lon;timestamp;P1;durP1;ratioP1;P2;durP2;ratioP2
19653;SDS011;9975;48.046;7.804;2023-05-20T01:56:31;4.73;;;3.63;;
19653;SDS011;9975;48.046;7.804;2023-05-20T01:58:58;8.50;;;4.00;;
19653;SDS011;9975;48.046;7.804;2023-05-20T02:01:23;5.97;;;4.70;;
19653;SDS011;9975;48.046;7.804;2023-05-20T02:03:50;8.90;;;4.30;;
19653;SDS011;9975;48.046;7.804;2023-05-20T02:06:16;6.50;;;4.57;;
19653;SDS011;9975;48.046;7.804;2023-05-20T02:08:41;4.10;;;3.47;;
19653;SDS011;9975;48.046;7.804;2023-05-20T02:11:07;6.17;;;4.30;;
19653;SDS011;9975;48.046;7.804;2023-05-20T02:13:33;5.73;;;3.97;;
19653;SDS011;9975;48.046;7.804;2023-05-20T02:15:58;8.73;;;3.93;;
19653;SDS011;9975;48.046;7.804;2023-05-20T02:18:24;7.57;;;4.23;;
19653;SDS011;9975;48.046;7.804;2023-05-20T02:20:50;7.77;;;4.40;;
19653;SDS011;9975;48.046;7.804;2023-05-20T02:23:16;9.10;;;5.00;;
19653;SDS011;9975;48.046;7.804;2023-05-20T02:25:42;5.43;;;4.00;;
19653;SDS011;9975;48.046;7.804;2023-05-20T02:28:08;5.30;;;4.80;;
19653;SDS011;9975;48.046;7.804;2023-05-20T02:30:36;4.10;;;3.57;;
19653;SDS011;9975;48.046;7.804;2023-05-20T02:33:02;4.57;;;3.80;;
19653;SDS011;9975;48.046;7.804;2023-05-20T02:35:28;4.63;;;4.23;;
19653;SDS011;9975;48.046;7.804;2023-05-20T02:37:53;4.73;;;4.23;;
19653;SDS011;9975;48.046;7.804;2023-05-20T02:40:19;9.20;;;5.07;;
19653;SDS011;9975;48.046;7.804;2023-05-20T02:42:45;4.80;;;4.40;;
19653;SDS011;9975;48.046;7.804;2023-05-20T02:45:11;5.10;;;4.53;;
19653;SDS011;9975;48.046;7.804;2023-05-20T02:47:36;5.87;;;4.33;;
19653;SDS011;9975;48.046;7.804;2023-05-20T02:50:02;4.70;;;3.80;;
19653;SDS011;9975;48.046;7.804;2023-05-20T02:52:28;6.87;;;5.37;;
19653;SDS011;9975;48.046;7.804;2023-05-20T02:54:54;5.90;;;4.40;;
19653;SDS011;9975;48.046;7.804;2023-05-20T02:57:20;8.40;;;4.27;;
19653;SDS011;9975;48.046;7.804;2023-05-20T02:59:46;5.50;;;4.30;;
19653;SDS011;9975;48.046;7.804;2023-05-20T03:02:11;9.70;;;5.40;;
19653;SDS011;9975;48.046;7.804;2023-05-20T03:04:37;6.93;;;4.47;;
19653;SDS011;9975;48.046;7.804;2023-05-20T03:07:05;6.20;;;4.50;;
19653;SDS011;9975;48.046;7.804;2023-05-20T03:09:34;5.30;;;4.47;;
19653;SDS011;9975;48.046;7.804;2023-05-20T03:11:59;7.30;;;4.93;;
19653;SDS011;9975;48.046;7.804;2023-05-20T03:14:25;11.70;;;4.40;;
19653;SDS011;9975;48.046;7.804;2023-05-20T03:16:52;6.50;;;5.27;;
19653;SDS011;9975;48.046;7.804;2023-05-20T03:19:20;7.97;;;5.03;;
19653;SDS011;9975;48.046;7.804;2023-05-20T03:21:46;5.53;;;4.27;;
19653;SDS011;9975;48.046;7.804;2023-05-20T03:24:11;7.87;;;4.43;;
19653;SDS011;9975;48.046;7.804;2023-05-20T03:26:37;6.87;;;4.17;;
19653;SDS011;9975;48.046;7.804;2023-05-20T03:29:07;4.23;;;3.83;;
19653;SDS011;9975;48.046;7.804;2023-05-20T03:31:33;4.47;;;4.00;;
19653;SDS011;9975;48.046;7.804;2023-05-20T03:33:59;5.73;;;3.90;;
19653;SDS011;9975;48.046;7.804;2023-05-20T03:36:25;4.93;;;4.10;;
19653;SDS011;9975;48.046;7.804;2023-05-20T03:38:50;6.67;;;4.43;;
19653;SDS011;9975;48.046;7.804;2023-05-20T03:41:16;4.27;;;3.87;;
19653;SDS011;9975;48.046;7.804;2023-05-20T03:43:42;7.40;;;4.87;;
19653;SDS011;9975;48.046;7.804;2023-05-20T03:46:07;4.80;;;4.20;;
19653;SDS011;9975;48.046;7.804;2023-05-20T03:48:33;6.37;;;4.47;;
19653;SDS011;9975;48.046;7.804;2023-05-20T03:50:58;7.03;;;4.97;;
19653;SDS011;9975;48.046;7.804;2023-05-20T03:53:25;5.27;;;4.70;;
19653;SDS011;9975;48.046;7.804;2023-05-20T03:55:51;5.30;;;4.10;;
19653;SDS011;9975;48.046;7.804;2023-05-20T03:58:17;5.90;;;4.30;;
19653;SDS011;9975;48.046;7.804;2023-05-20T04:00:44;7.30;;;5.63;;
19653;SDS011;9975;48.046;7.804;2023-05-20T04:03:11;6.77;;;3.70;;
19653;SDS011;9975;48.046;7.804;2023-05-20T04:05:37;8.23;;;4.03;;
19653;SDS011;9975;48.046;7.804;2023-05-20T04:08:03;8.73;;;5.37;;
19653;SDS011;9975;48.046;7.804;2023-05-20T04:10:29;6.20;;;5.43;;
19653;SDS011;9975;48.046;7.804;2023-05-20T04:12:56;5.70;;;4.80;;
19653;SDS011;9975;48.046;7.804;2023-05-20T04:15:22;9.23;;;4.90;;
19653;SDS011;9975;48.046;7.804;2023-05-20T04:17:49;5.27;;;4.23;;
19653;SDS011;9975;48.046;7.804;2023-05-20T04:20:16;9.13;;;4.80;;
19653;SDS011;9975;48.046;7.804;2023-05-20T04:22:43;6.77;;;4.63;;
19653;SDS011;9975;48.046;7.804;2023-05-20T04:25:09;6.20;;;4.93;;
19653;SDS011;9975;48.046;7.804;2023-05-20T04:27:35;9.40;;;4.57;;
19653;SDS011;9975;48.046;7.804;2023-05-20T04:30:04;8.80;;;5.27;;
19653;SDS011;9975;48.046;7.804;2023-05-20T04:32:31;15.20;;;5.07;;
19653;SDS011;9975;48.046;7.804;2023-05-20T04:34:58;5.30;;;4.80;;
19653;SDS011;9975;48.046;7.804;2023-05-20T04:37:26;8.00;;;5.17;;
19653;SDS011;9975;48.046;7.804;2023-05-20T04:39:52;6.57;;;5.37;;
19653;SDS011;9975;48.046;7.804;2023-05-20T04:42:17;6.00;;;5.40;;
19653;SDS011;9975;48.046;7.804;2023-05-20T04:44:44;7.67;;;6.03;;
19653;SDS011;9975;48.046;7.804;2023-05-20T04:47:10;8.90;;;5.97;;
19653;SDS011;9975;48.046;7.804;2023-05-20T04:49:36;7.17;;;5.60;;
19653;SDS011;9975;48.046;7.804;2023-05-20T04:52:02;8.73;;;5.50;;
19653;SDS011;9975;48.046;7.804;2023-05-20T04:54:28;10.53;;;6.40;;
19653;SDS011;9975;48.046;7.804;2023-05-20T04:56:55;10.60;;;6.00;;
19653;SDS011;9975;48.046;7.804;2023-05-20T04:59:20;10.93;;;6.50;;
19653;SDS011;9975;48.046;7.804;2023-05-20T05:01:46;8.50;;;6.00;;
19653;SDS011;9975;48.046;7.804;2023-05-20T05:04:12;9.60;;;6.80;;
19653;SDS011;9975;48.046;7.804;2023-05-20T05:06:37;8.27;;;6.37;;
19653;SDS011;9975;48.046;7.804;2023-05-20T05:09:03;6.80;;;5.83;;
19653;SDS011;9975;48.046;7.804;2023-05-20T05:11:29;7.03;;;6.03;;
19653;SDS011;9975;48.046;7.804;2023-05-20T05:13:55;8.50;;;6.13;;
19653;SDS011;9975;48.046;7.804;2023-05-20T05:16:21;8.30;;;5.93;;
19653;SDS011;9975;48.046;7.804;2023-05-20T05:18:47;10.43;;;5.50;;
19653;SDS011;9975;48.046;7.804;2023-05-20T05:21:13;8.60;;;5.50;;
19653;SDS011;9975;48.046;7.804;2023-05-20T05:23:39;7.17;;;5.73;;
19653;SDS011;9975;48.046;7.804;2023-05-20T05:26:06;7.77;;;5.83;;
19653;SDS011;9975;48.046;7.804;2023-05-20T05:28:32;7.67;;;6.40;;
19653;SDS011;9975;48.046;7.804;2023-05-20T05:30:57;7.13;;;5.33;;
19653;SDS011;9975;48.046;7.804;2023-05-20T05:33:23;7.80;;;5.17;;
19653;SDS011;9975;48.046;7.804;2023-05-20T05:35:49;6.10;;;5.50;;
19653;SDS011;9975;48.046;7.804;2023-05-20T05:38:15;6.80;;;5.37;;
19653;SDS011;9975;48.046;7.804;2023-05-20T05:40:41;7.77;;;4.30;;
19653;SDS011;9975;48.046;7.804;2023-05-20T05:43:06;6.03;;;5.43;;
19653;SDS011;9975;48.046;7.804;2023-05-20T05:45:32;6.70;;;5.57;;
19653;SDS011;9975;48.046;7.804;2023-05-20T05:47:58;5.73;;;4.40;;
19653;SDS011;9975;48.046;7.804;2023-05-20T05:50:23;6.83;;;4.30;;
19653;SDS011;9975;48.046;7.804;2023-05-20T05:52:49;5.80;;;4.50;;
19653;SDS011;9975;48.046;7.804;2023-05-20T05:55:15;12.83;;;4.40;;
19653;SDS011;9975;48.046;7.804;2023-05-20T05:57:42;5.23;;;4.10;;
19653;SDS011;9975;48.046;7.804;2023-05-20T06:00:07;9.87;;;4.87;;
19653;SDS011;9975;48.046;7.804;2023-05-20T06:02:34;5.67;;;4.10;;
19653;SDS011;9975;48.046;7.804;2023-05-20T06:05:03;5.00;;;4.47;;
19653;SDS011;9975;48.046;7.804;2023-05-20T06:07:29;6.43;;;4.40;;
19653;SDS011;9975;48.046;7.804;2023-05-20T06:09:54;6.90;;;4.40;;
19653;SDS011;9975;48.046;7.804;2023-05-20T06:12:20;7.10;;;4.40;;
19653;SDS011;9975;48.046;7.804;2023-05-20T06:14:46;5.17;;;4.30;;
19653;SDS011;9975;48.046;7.804;2023-05-20T06:17:13;5.53;;;5.03;;
19653;SDS011;9975;48.046;7.804;2023-05-20T06:19:39;8.40;;;4.90;;
19653;SDS011;9975;48.046;7.804;2023-05-20T06:22:05;7.50;;;5.43;;
19653;SDS011;9975;48.046;7.804;2023-05-20T06:24:30;5.07;;;4.27;;
19653;SDS011;9975;48.046;7.804;2023-05-20T06:26:56;5.50;;;4.00;;
19653;SDS011;9975;48.046;7.804;2023-05-20T06:29:22;5.03;;;3.60;;
19653;SDS011;9975;48.046;7.804;2023-05-20T06:31:48;4.40;;;3.93;;
19653;SDS011;9975;48.046;7.804;2023-05-20T06:34:13;5.77;;;4.90;;
19653;SDS011;9975;48.046;7.804;2023-05-20T06:36:39;6.70;;;4.70;;
19653;SDS011;9975;48.046;7.804;2023-05-20T06:39:04;4.67;;;3.90;;
19653;SDS011;9975;48.046;7.804;2023-05-20T06:41:36;5.53;;;4.57;;
19653;SDS011;9975;48.046;7.804;2023-05-20T06:44:05;7.43;;;3.70;;
19653;SDS011;9975;48.046;7.804;2023-05-20T06:46:31;4.27;;;3.63;;
19653;SDS011;9975;48.046;7.804;2023-05-20T06:48:57;7.17;;;3.77;;
19653;SDS011;9975;48.046;7.804;2023-05-20T06:51:24;5.27;;;3.63;;
19653;SDS011;9975;48.046;7.804;2023-05-20T06:53:51;6.67;;;4.20;;
19653;SDS011;9975;48.046;7.804;2023-05-20T06:56:17;4.07;;;3.63;;
19653;SDS011;9975;48.046;7.804;2023-05-20T06:58:42;6.20;;;4.17;;
19653;SDS011;9975;48.046;7.804;2023-05-20T07:01:08;4.27;;;3.30;;
19653;SDS011;9975;48.046;7.804;2023-05-20T07:03:33;4.57;;;2.90;;
19653;SDS011;9975;48.046;7.804;2023-05-20T07:05:59;6.27;;;4.13;;
19653;SDS011;9975;48.046;7.804;2023-05-20T07:08:25;5.20;;;3.37;;
19653;SDS011;9975;48.046;7.804;2023-05-20T07:10:50;4.90;;;3.83;;
19653;SDS011;9975;48.046;7.804;2023-05-20T07:13:16;8.03;;;4.00;;
19653;SDS011;9975;48.046;7.804;2023-05-20T07:15:45;4.17;;;3.50;;
19653;SDS011;9975;48.046;7.804;2023-05-20T07:18:14;5.37;;;4.10;;
19653;SDS011;9975;48.046;7.804;2023-05-20T07:20:40;5.93;;;3.27;;
19653;SDS011;9975;48.046;7.804;2023-05-20T07:23:05;4.43;;;3.40;;
19653;SDS011;9975;48.046;7.804;2023-05-20T07:25:31;4.37;;;3.60;;
19653;SDS011;9975;48.046;7.804;2023-05-20T07:27:57;3.77;;;3.47;;
19653;SDS011;9975;48.046;7.804;2023-05-20T07:30:24;3.03;;;2.77;;
19653;SDS011;9975;48.046;7.804;2023-05-20T07:32:50;4.60;;;3.40;;
19653;SDS011;9975;48.046;7.804;2023-05-20T07:35:16;4.07;;;3.30;;
19653;SDS011;9975;48.046;7.804;2023-05-20T07:37:42;3.30;;;3.00;;
19653;SDS011;9975;48.046;7.804;2023-05-20T07:40:07;4.93;;;3.43;;
19653;SDS011;9975;48.046;7.804;2023-05-20T07:42:33;5.13;;;3.00;;
19653;SDS011;9975;48.046;7.804;2023-05-20T07:44:59;4.53;;;3.90;;
19653;SDS011;9975;48.046;7.804;2023-05-20T07:47:25;4.80;;;3.80;;
19653;SDS011;9975;48.046;7.804;2023-05-20T07:49:51;4.17;;;3.37;;
19653;SDS011;9975;48.046;7.804;2023-05-20T07:52:16;3.67;;;3.20;;
19653;SDS011;9975;48.046;7.804;2023-05-20T07:54:42;3.97;;;3.67;;
19653;SDS011;9975;48.046;7.804;2023-05-20T07:57:07;3.47;;;3.17;;
19653;SDS011;9975;48.046;7.804;2023-05-20T07:59:33;4.00;;;3.50;;
19653;SDS011;9975;48.046;7.804;2023-05-20T08:01:58;4.43;;;3.60;;
19653;SDS011;9975;48.046;7.804;2023-05-20T08:04:24;4.43;;;3.53;;
19653;SDS011;9975;48.046;7.804;2023-05-20T08:06:51;4.17;;;3.80;;
19653;SDS011;9975;48.046;7.804;2023-05-20T08:09:17;4.60;;;4.20;;
19653;SDS011;9975;48.046;7.804;2023-05-20T08:11:43;5.20;;;3.93;;
19653;SDS011;9975;48.046;7.804;2023-05-20T08:14:09;5.13;;;3.50;;
19653;SDS011;9975;48.046;7.804;2023-05-20T08:16:35;4.50;;;3.17;;
19653;SDS011;9975;48.046;7.804;2023-05-20T08:19:01;5.00;;;4.33;;
19653;SDS011;9975;48.046;7.804;2023-05-20T08:21:27;9.40;;;4.20;;
19653;SDS011;9975;48.046;7.804;2023-05-20T08:23:52;7.03;;;4.60;;
19653;SDS011;9975;48.046;7.804;2023-05-20T08:26:18;4.13;;;3.73;;
19653;SDS011;9975;48.046;7.804;2023-05-20T08:28:44;5.20;;;4.10;;
19653;SDS011;9975;48.046;7.804;2023-05-20T08:31:09;6.73;;;4.67;;
19653;SDS011;9975;48.046;7.804;2023-05-20T08:33:35;4.70;;;4.27;;
19653;SDS011;9975;48.046;7.804;2023-05-20T08:36:00;4.90;;;4.40;;
19653;SDS011;9975;48.046;7.804;2023-05-20T08:38:26;6.43;;;4.40;;
19653;SDS011;9975;48.046;7.804;2023-05-20T08:40:55;6.63;;;4.13;;
19653;SDS011;9975;48.046;7.804;2023-05-20T08:43:24;4.40;;;3.90;;
19653;SDS011;9975;48.046;7.804;2023-05-20T08:45:50;5.70;;;3.77;;
19653;SDS011;9975;48.046;7.804;2023-05-20T08:48:16;5.50;;;3.70;;
19653;SDS011;9975;48.046;7.804;2023-05-20T08:50:48;5.47;;;4.00;;
19653;SDS011;9975;48.046;7.804;2023-05-20T08:53:16;5.63;;;3.50;;
19653;SDS011;9975;48.046;7.804;2023-05-20T08:55:48;5.47;;;3.93;;
19653;SDS011;9975;48.046;7.804;2023-05-20T08:58:19;4.60;;;4.10;;
19653;SDS011;9975;48.046;7.804;2023-05-20T09:00:47;3.60;;;3.10;;
19653;SDS011;9975;48.046;7.804;2023-05-20T09:03:12;5.00;;;3.90;;
19653;SDS011;9975;48.046;7.804;2023-05-20T09:05:38;6.97;;;3.93;;
19653;SDS011;9975;48.046;7.804;2023-05-20T09:08:07;4.70;;;4.30;;
19653;SDS011;9975;48.046;7.804;2023-05-20T09:10:34;3.77;;;3.43;;
19653;SDS011;9975;48.046;7.804;2023-05-20T09:13:01;4.70;;;4.30;;
19653;SDS011;9975;48.046;7.804;2023-05-20T09:15:29;4.83;;;3.50;;
19653;SDS011;9975;48.046;7.804;2023-05-20T09:18:03;4.00;;;3.60;;
19653;SDS011;9975;48.046;7.804;2023-05-20T09:20:31;5.30;;;3.83;;
19653;SDS011;9975;48.046;7.804;2023-05-20T09:23:06;5.07;;;3.90;;
19653;SDS011;9975;48.046;7.804;2023-05-20T09:25:33;4.43;;;4.03;;
19653;SDS011;9975;48.046;7.804;2023-05-20T09:27:59;4.83;;;3.83;;
19653;SDS011;9975;48.046;7.804;2023-05-20T09:30:25;5.07;;;4.27;;
19653;SDS011;9975;48.046;7.804;2023-05-20T09:32:54;3.80;;;3.50;;
19653;SDS011;9975;48.046;7.804;2023-05-20T09:35:21;4.23;;;3.60;;
19653;SDS011;9975;48.046;7.804;2023-05-20T09:37:49;3.77;;;3.40;;
19653;SDS011;9975;48.046;7.804;2023-05-20T09:40:25;3.87;;;3.10;;
19653;SDS011;9975;48.046;7.804;2023-05-20T09:42:52;3.80;;;3.50;;
19653;SDS011;9975;48.046;7.804;2023-05-20T09:45:25;4.80;;;4.10;;
19653;SDS011;9975;48.046;7.804;2023-05-20T09:47:51;4.53;;;3.80;;
19653;SDS011;9975;48.046;7.804;2023-05-20T09:50:18;3.70;;;3.40;;
19653;SDS011;9975;48.046;7.804;2023-05-20T09:52:46;4.40;;;4.00;;
19653;SDS011;9975;48.046;7.804;2023-05-20T09:55:13;3.70;;;3.40;;
19653;SDS011;9975;48.046;7.804;2023-05-20T09:57:40;3.97;;;3.63;;
19653;SDS011;9975;48.046;7.804;2023-05-20T10:00:06;3.80;;;3.50;;
19653;SDS011;9975;48.046;7.804;2023-05-20T10:02:33;4.20;;;3.67;;
19653;SDS011;9975;48.046;7.804;2023-05-20T10:05:01;4.90;;;4.00;;
19653;SDS011;9975;48.046;7.804;2023-05-20T10:10:36;5.13;;;4.00;;
19653;SDS011;9975;48.046;7.804;2023-05-20T10:16:33;3.63;;;3.33;;
19653;SDS011;9975;48.046;7.804;2023-05-20T10:21:59;3.90;;;3.60;;
19653;SDS011;9975;48.046;7.804;2023-05-20T10:24:29;4.90;;;3.77;;
19653;SDS011;9975;48.046;7.804;2023-05-20T10:26:57;7.47;;;4.40;;
19653;SDS011;9975;48.046;7.804;2023-05-20T10:29:25;5.50;;;4.03;;
19653;SDS011;9975;48.046;7.804;2023-05-20T10:31:51;4.07;;;3.67;;
19653;SDS011;9975;48.046;7.804;2023-05-20T10:34:18;4.10;;;3.70;;
19653;SDS011;9975;48.046;7.804;2023-05-20T10:37:06;4.33;;;3.93;;
19653;SDS011;9975;48.046;7.804;2023-05-20T10:39:31;4.20;;;3.80;;
19653;SDS011;9975;48.046;7.804;2023-05-20T10:42:05;3.77;;;3.30;;
19653;SDS011;9975;48.046;7.804;2023-05-20T10:44:44;6.30;;;4.00;;
19653;SDS011;9975;48.046;7.804;2023-05-20T10:47:11;4.50;;;4.10;;
19653;SDS011;9975;48.046;7.804;2023-05-20T10:49:44;4.43;;;4.03;;
19653;SDS011;9975;48.046;7.804;2023-05-20T10:52:10;7.07;;;4.10;;
19653;SDS011;9975;48.046;7.804;2023-05-20T10:54:47;4.23;;;3.90;;
19653;SDS011;9975;48.046;7.804;2023-05-20T10:57:22;4.43;;;3.60;;
19653;SDS011;9975;48.046;7.804;2023-05-20T10:59:52;8.30;;;3.67;;
19653;SDS011;9975;48.046;7.804;2023-05-20T11:02:19;6.13;;;4.57;;
19653;SDS011;9975;48.046;7.804;2023-05-20T11:04:52;4.37;;;3.97;;
19653;SDS011;9975;48.046;7.804;2023-05-20T11:07:29;4.53;;;4.13;;
19653;SDS011;9975;48.046;7.804;2023-05-20T11:09:55;4.40;;;4.00;;
19653;SDS011;9975;48.046;7.804;2023-05-20T11:12:22;5.17;;;4.67;;
19653;SDS011;9975;48.046;7.804;2023-05-20T11:14:49;4.60;;;3.93;;
19653;SDS011;9975;48.046;7.804;2023-05-20T11:17:15;4.10;;;3.70;;
19653;SDS011;9975;48.046;7.804;2023-05-20T11:19:41;3.87;;;3.57;;
19653;SDS011;9975;48.046;7.804;2023-05-20T11:22:07;5.10;;;4.50;;
19653;SDS011;9975;48.046;7.804;2023-05-20T11:24:33;4.50;;;4.10;;
19653;SDS011;9975;48.046;7.804;2023-05-20T11:26:59;4.30;;;3.90;;
19653;SDS011;9975;48.046;7.804;2023-05-20T11:29:26;9.50;;;4.50;;
19653;SDS011;9975;48.046;7.804;2023-05-20T11:31:53;4.97;;;3.90;;
19653;SDS011;9975;48.046;7.804;2023-05-20T11:34:19;4.17;;;3.83;;
19653;SDS011;9975;48.046;7.804;2023-05-20T11:36:46;6.97;;;3.53;;
19653;SDS011;9975;48.046;7.804;2023-05-20T11:39:14;4.50;;;4.10;;
19653;SDS011;9975;48.046;7.804;2023-05-20T11:41:40;5.33;;;3.97;;
19653;SDS011;9975;48.046;7.804;2023-05-20T11:44:10;4.07;;;3.70;;
19653;SDS011;9975;48.046;7.804;2023-05-20T11:46:40;4.30;;;3.90;;
19653;SDS011;9975;48.046;7.804;2023-05-20T11:49:07;5.00;;;3.90;;
19653;SDS011;9975;48.046;7.804;2023-05-20T11:51:32;3.70;;;3.40;;
19653;SDS011;9975;48.046;7.804;2023-05-20T11:54:02;5.37;;;4.40;;
19653;SDS011;9975;48.046;7.804;2023-05-20T11:56:29;4.37;;;3.80;;
19653;SDS011;9975;48.046;7.804;2023-05-20T11:58:56;5.60;;;4.00;;
19653;SDS011;9975;48.046;7.804;2023-05-20T12:01:22;4.57;;;4.07;;
19653;SDS011;9975;48.046;7.804;2023-05-20T12:03:48;4.13;;;3.83;;
19653;SDS011;9975;48.046;7.804;2023-05-20T12:06:14;3.83;;;3.30;;
19653;SDS011;9975;48.046;7.804;2023-05-20T12:08:41;4.50;;;4.10;;
19653;SDS011;9975;48.046;7.804;2023-05-20T12:11:06;3.47;;;3.20;;
19653;SDS011;9975;48.046;7.804;2023-05-20T12:13:33;5.60;;;4.00;;
19653;SDS011;9975;48.046;7.804;2023-05-20T12:15:59;3.80;;;3.50;;
19653;SDS011;9975;48.046;7.804;2023-05-20T12:18:24;4.17;;;3.77;;
19653;SDS011;9975;48.046;7.804;2023-05-20T12:20:50;3.63;;;3.30;;
19653;SDS011;9975;48.046;7.804;2023-05-20T12:23:16;3.90;;;3.50;;
19653;SDS011;9975;48.046;7.804;2023-05-20T12:25:41;10.73;;;3.20;;
19653;SDS011;9975;48.046;7.804;2023-05-20T12:28:09;4.67;;;4.27;;
19653;SDS011;9975;48.046;7.804;2023-05-20T12:30:35;3.97;;;3.67;;
19653;SDS011;9975;48.046;7.804;2023-05-20T12:33:01;3.57;;;3.20;;
19653;SDS011;9975;48.046;7.804;2023-05-20T12:35:36;4.40;;;3.50;;
19653;SDS011;9975;48.046;7.804;2023-05-20T12:38:06;4.17;;;3.77;;
19653;SDS011;9975;48.046;7.804;2023-05-20T12:40:32;5.23;;;3.20;;
19653;SDS011;9975;48.046;7.804;2023-05-20T12:43:02;2.90;;;2.70;;
19653;SDS011;9975;48.046;7.804;2023-05-20T12:45:29;3.40;;;3.20;;
19653;SDS011;9975;48.046;7.804;2023-05-20T12:47:55;3.30;;;3.10;;
19653;SDS011;9975;48.046;7.804;2023-05-20T12:50:21;3.90;;;3.60;;
19653;SDS011;9975;48.046;7.804;2023-05-20T12:52:48;3.77;;;3.47;;
19653;SDS011;9975;48.046;7.804;2023-05-20T12:55:13;4.00;;;3.70;;
19653;SDS011;9975;48.046;7.804;2023-05-20T12:57:39;3.60;;;3.30;;
19653;SDS011;9975;48.046;7.804;2023-05-20T13:00:07;4.37;;;4.00;;
19653;SDS011;9975;48.046;7.804;2023-05-20T13:02:34;4.90;;;3.40;;
19653;SDS011;9975;48.046;7.804;2023-05-20T13:05:01;3.60;;;3.17;;
19653;SDS011;9975;48.046;7.804;2023-05-20T13:07:26;3.90;;;3.60;;
19653;SDS011;9975;48.046;7.804;2023-05-20T13:09:52;6.77;;;4.03;;
19653;SDS011;9975;48.046;7.804;2023-05-20T13:12:17;3.40;;;3.10;;
19653;SDS011;9975;48.046;7.804;2023-05-20T13:14:43;3.67;;;3.20;;
19653;SDS011;9975;48.046;7.804;2023-05-20T13:17:10;3.73;;;3.43;;
19653;SDS011;9975;48.046;7.804;2023-05-20T13:19:36;3.60;;;3.30;;
19653;SDS011;9975;48.046;7.804;2023-05-20T13:22:02;4.20;;;3.17;;
19653;SDS011;9975;48.046;7.804;2023-05-20T13:24:28;3.60;;;3.40;;
19653;SDS011;9975;48.046;7.804;2023-05-20T13:26:54;7.20;;;3.73;;
19653;SDS011;9975;48.046;7.804;2023-05-20T13:29:19;4.00;;;3.70;;
19653;SDS011;9975;48.046;7.804;2023-05-20T13:31:45;4.67;;;4.00;;
19653;SDS011;9975;48.046;7.804;2023-05-20T13:34:12;4.63;;;3.60;;
19653;SDS011;9975;48.046;7.804;2023-05-20T13:36:37;4.50;;;4.10;;
19653;SDS011;9975;48.046;7.804;2023-05-20T13:39:04;3.47;;;3.17;;
19653;SDS011;9975;48.046;7.804;2023-05-20T13:41:30;3.87;;;3.57;;
19653;SDS011;9975;48.046;7.804;2023-05-20T13:43:56;4.00;;;3.70;;
19653;SDS011;9975;48.046;7.804;2023-05-20T13:46:22;4.00;;;3.70;;
19653;SDS011;9975;48.046;7.804;2023-05-20T13:48:48;5.97;;;3.80;;
19653;SDS011;9975;48.046;7.804;2023-05-20T13:51:13;3.67;;;3.37;;
19653;SDS011;9975;48.046;7.804;2023-05-20T13:53:41;4.07;;;3.67;;
19653;SDS011;9975;48.046;7.804;2023-05-20T13:56:06;5.20;;;4.20;;
19653;SDS011;9975;48.046;7.804;2023-05-20T13:58:35;3.50;;;3.23;;
19653;SDS011;9975;48.046;7.804;2023-05-20T14:01:01;4.27;;;3.87;;
19653;SDS011;9975;48.046;7.804;2023-05-20T14:03:28;4.10;;;3.80;;
19653;SDS011;9975;48.046;7.804;2023-05-20T14:05:54;3.97;;;3.57;;
19653;SDS011;9975;48.046;7.804;2023-05-20T14:08:20;3.73;;;3.43;;
19653;SDS011;9975;48.046;7.804;2023-05-20T14:10:46;7.57;;;3.80;;
19653;SDS011;9975;48.046;7.804;2023-05-20T14:13:11;3.30;;;3.10;;
19653;SDS011;9975;48.046;7.804;2023-05-20T14:15:37;3.50;;;3.30;;
19653;SDS011;9975;48.046;7.804;2023-05-20T14:18:03;5.27;;;4.57;;
19653;SDS011;9975;48.046;7.804;2023-05-20T14:20:28;3.17;;;2.90;;
19653;SDS011;9975;48.046;7.804;2023-05-20T14:22:54;7.20;;;3.77;;
19653;SDS011;9975;48.046;7.804;2023-05-20T14:25:20;3.70;;;3.20;;
19653;SDS011;9975;48.046;7.804;2023-05-20T14:27:45;4.10;;;3.80;;
19653;SDS011;9975;48.046;7.804;2023-05-20T14:30:11;9.30;;;5.60;;
19653;SDS011;9975;48.046;7.804;2023-05-20T14:32:37;3.63;;;3.33;;
19653;SDS011;9975;48.046;7.804;2023-05-20T14:35:03;4.87;;;3.80;;
19653;SDS011;9975;48.046;7.804;2023-05-20T14:37:29;4.50;;;4.10;;
19653;SDS011;9975;48.046;7.804;2023-05-20T14:39:55;4.40;;;4.00;;
19653;SDS011;9975;48.046;7.804;2023-05-20T14:42:21;3.60;;;3.30;;
19653;SDS011;9975;48.046;7.804;2023-05-20T14:44:46;4.43;;;3.43;;
19653;SDS011;9975;48.046;7.804;2023-05-20T14:47:12;3.60;;;3.30;;
19653;SDS011;9975;48.046;7.804;2023-05-20T14:49:43;4.00;;;3.70;;
19653;SDS011;9975;48.046;7.804;2023-05-20T14:52:10;6.20;;;3.67;;
19653;SDS011;9975;48.046;7.804;2023-05-20T14:54:35;3.80;;;3.50;;
19653;SDS011;9975;48.046;7.804;2023-05-20T14:57:01;3.60;;;3.30;;
19653;SDS011;9975;48.046;7.804;2023-05-20T14:59:28;4.00;;;3.63;;
19653;SDS011;9975;48.046;7.804;2023-05-20T15:01:53;4.83;;;4.40;;
19653;SDS011;9975;48.046;7.804;2023-05-20T15:04:19;5.43;;;4.37;;
19653;SDS011;9975;48.046;7.804;2023-05-20T15:06:45;4.10;;;3.73;;
19653;SDS011;9975;48.046;7.804;2023-05-20T15:09:11;4.57;;;4.23;;
19653;SDS011;9975;48.046;7.804;2023-05-20T15:11:36;5.07;;;3.97;;
19653;SDS011;9975;48.046;7.804;2023-05-20T15:14:02;5.53;;;4.60;;
19653;SDS011;9975;48.046;7.804;2023-05-20T15:16:28;4.37;;;3.53;;
19653;SDS011;9975;48.046;7.804;2023-05-20T15:18:53;3.97;;;3.67;;
19653;SDS011;9975;48.046;7.804;2023-05-20T15:21:19;3.60;;;3.30;;
19653;SDS011;9975;48.046;7.804;2023-05-20T15:23:45;3.90;;;3.50;;
19653;SDS011;9975;48.046;7.804;2023-05-20T15:26:11;4.17;;;3.80;;
19653;SDS011;9975;48.046;7.804;2023-05-20T15:28:37;4.00;;;3.60;;
19653;SDS011;9975;48.046;7.804;2023-05-20T15:31:03;3.77;;;3.47;;
19653;SDS011;9975;48.046;7.804;2023-05-20T15:33:29;3.70;;;3.40;;
19653;SDS011;9975;48.046;7.804;2023-05-20T15:35:55;4.63;;;3.73;;
19653;SDS011;9975;48.046;7.804;2023-05-20T15:38:20;3.70;;;3.40;;
19653;SDS011;9975;48.046;7.804;2023-05-20T15:40:46;4.10;;;3.80;;
19653;SDS011;9975;48.046;7.804;2023-05-20T15:43:14;3.93;;;3.63;;
19653;SDS011;9975;48.046;7.804;2023-05-20T15:45:40;4.13;;;3.60;;
19653;SDS011;9975;48.046;7.804;2023-05-20T15:48:05;5.50;;;3.53;;
19653;SDS011;9975;48.046;7.804;2023-05-20T15:50:33;4.23;;;3.43;;
19653;SDS011;9975;48.046;7.804;2023-05-20T15:52:59;4.33;;;3.93;;
19653;SDS011;9975;48.046;7.804;2023-05-20T15:55:25;6.63;;;3.40;;
19653;SDS011;9975;48.046;7.804;2023-05-20T15:57:51;4.20;;;3.50;;
19653;SDS011;9975;48.046;7.804;2023-05-20T16:00:17;3.47;;;3.17;;
19653;SDS011;9975;48.046;7.804;2023-05-20T16:02:44;5.60;;;3.47;;
19653;SDS011;9975;48.046;7.804;2023-05-20T16:05:10;3.60;;;3.30;;
19653;SDS011;9975;48.046;7.804;2023-05-20T16:07:36;5.73;;;4.80;;
19653;SDS011;9975;48.046;7.804;2023-05-20T16:10:02;4.10;;;3.80;;
19653;SDS011;9975;48.046;7.804;2023-05-20T16:12:28;5.30;;;4.80;;
19653;SDS011;9975;48.046;7.804;2023-05-20T16:14:53;5.23;;;4.40;;
19653;SDS011;9975;48.046;7.804;2023-05-20T16:17:19;6.00;;;4.90;;
19653;SDS011;9975;48.046;7.804;2023-05-20T16:19:46;4.87;;;4.40;;
19653;SDS011;9975;48.046;7.804;2023-05-20T16:22:12;4.70;;;4.30;;
19653;SDS011;9975;48.046;7.804;2023-05-20T16:24:38;7.03;;;4.80;;
19653;SDS011;9975;48.046;7.804;2023-05-20T16:27:04;5.57;;;5.13;;
19653;SDS011;9975;48.046;7.804;2023-05-20T16:29:30;5.20;;;4.70;;
19653;SDS011;9975;48.046;7.804;2023-05-20T16:31:56;4.47;;;4.07;;
19653;SDS011;9975;48.046;7.804;2023-05-20T16:34:21;7.40;;;4.43;;
19653;SDS011;9975;48.046;7.804;2023-05-20T16:36:47;4.33;;;3.93;;
19653;SDS011;9975;48.046;7.804;2023-05-20T16:39:13;4.43;;;4.10;;
19653;SDS011;9975;48.046;7.804;2023-05-20T16:41:39;4.63;;;4.20;;
19653;SDS011;9975;48.046;7.804;2023-05-20T16:44:06;4.50;;;4.10;;
19653;SDS011;9975;48.046;7.804;2023-05-20T16:46:31;4.80;;;4.40;;
19653;SDS011;9975;48.046;7.804;2023-05-20T16:48:57;5.40;;;4.80;;
19653;SDS011;9975;48.046;7.804;2023-05-20T16:51:22;5.97;;;5.37;;
19653;SDS011;9975;48.046;7.804;2023-05-20T16:53:48;6.13;;;5.00;;
19653;SDS011;9975;48.046;7.804;2023-05-20T16:56:14;8.43;;;5.90;;
19653;SDS011;9975;48.046;7.804;2023-05-20T16:58:39;6.00;;;5.10;;
19653;SDS011;9975;48.046;7.804;2023-05-20T17:01:05;11.10;;;5.20;;